createdAt,value
2023-04-29T00:01:40.273Z,12.42
2023-04-29T00:04:09.468Z,12.43
2023-04-29T00:06:38.098Z,12.42
2023-04-29T00:09:08.217Z,12.41
2023-04-29T00:11:36.813Z,12.41
2023-04-29T00:14:05.607Z,12.42
2023-04-29T00:16:34.390Z,12.41
2023-04-29T00:19:04.589Z,12.41
2023-04-29T00:21:33.416Z,12.39
2023-04-29T00:24:02.111Z,12.39
2023-04-29T00:26:32.289Z,12.36
2023-04-29T00:29:00.884Z,12.32
2023-04-29T00:31:29.552Z,12.28
2023-04-29T00:33:58.386Z,12.24
2023-04-29T00:36:27.584Z,12.21
2023-04-29T00:38:56.165Z,12.18
2023-04-29T00:41:25.438Z,12.15
2023-04-29T00:43:55.275Z,12.09
2023-04-29T00:46:24.043Z,12.08
2023-04-29T00:48:52.607Z,12.04
2023-04-29T00:51:21.248Z,12.00
2023-04-29T00:53:50.207Z,11.96
2023-04-29T00:56:21.106Z,11.92
2023-04-29T00:58:51.874Z,11.85
2023-04-29T01:01:22.432Z,11.83
2023-04-29T01:03:51.681Z,11.79
2023-04-29T01:06:38.554Z,11.76
2023-04-29T01:09:22.646Z,11.75
2023-04-29T01:11:59.974Z,11.71
2023-04-29T01:14:29.574Z,11.68
2023-04-29T01:17:04.689Z,11.66
2023-04-29T01:19:45.959Z,11.64
2023-04-29T01:22:15.520Z,11.63
2023-04-29T01:24:45.856Z,11.60
2023-04-29T01:27:24.999Z,11.58
2023-04-29T01:30:02.125Z,11.56
2023-04-29T01:32:35.162Z,11.56
2023-04-29T01:35:11.960Z,11.54
2023-04-29T01:37:50.525Z,11.51
2023-04-29T01:40:23.909Z,11.48
2023-04-29T01:43:11.910Z,11.44
2023-04-29T01:45:45.001Z,11.43
2023-04-29T01:48:14.539Z,11.40
2023-04-29T01:50:43.877Z,11.39
2023-04-29T01:53:14.084Z,11.37
2023-04-29T01:55:44.936Z,11.36
2023-04-29T01:58:26.910Z,11.34
2023-04-29T02:00:58.330Z,11.31
2023-04-29T02:03:29.108Z,11.30
2023-04-29T02:05:59.254Z,11.28
2023-04-29T02:08:27.756Z,11.24
2023-04-29T02:11:00.533Z,11.22
2023-04-29T02:13:34.876Z,11.21
2023-04-29T02:16:10.419Z,11.19
2023-04-29T02:18:41.338Z,11.19
2023-04-29T02:21:10.293Z,11.16
2023-04-29T02:23:39.352Z,11.14
2023-04-29T02:26:10.623Z,11.11
2023-04-29T02:28:39.253Z,11.09
2023-04-29T02:31:07.829Z,11.08
2023-04-29T02:33:36.283Z,11.06
2023-04-29T02:36:05.342Z,11.02
2023-04-29T02:38:34.135Z,11.01
2023-04-29T02:41:02.720Z,10.98
2023-04-29T02:43:32.723Z,10.95
2023-04-29T02:46:01.344Z,10.92
2023-04-29T02:48:30.200Z,10.88
2023-04-29T02:50:58.694Z,10.85
2023-04-29T02:53:27.161Z,10.81
2023-04-29T02:55:55.800Z,10.79
2023-04-29T02:58:24.364Z,10.77
2023-04-29T03:00:54.294Z,10.75
2023-04-29T03:03:23.764Z,10.73
2023-04-29T03:05:52.967Z,10.71
2023-04-29T03:08:21.917Z,10.69
2023-04-29T03:10:50.425Z,10.68
2023-04-29T03:13:20.825Z,10.66
2023-04-29T03:15:49.390Z,10.65
2023-04-29T03:18:19.478Z,10.62
2023-04-29T03:20:49.643Z,10.59
2023-04-29T03:23:18.127Z,10.57
2023-04-29T03:25:47.035Z,10.56
2023-04-29T03:28:16.048Z,10.52
2023-04-29T03:30:44.510Z,10.48
2023-04-29T03:33:12.955Z,10.47
2023-04-29T03:35:42.957Z,10.44
2023-04-29T03:38:23.219Z,10.44
2023-04-29T03:40:51.793Z,10.44
2023-04-29T03:43:20.347Z,10.43
2023-04-29T03:45:49.187Z,10.43
2023-04-29T03:48:21.440Z,10.42
2023-04-29T03:50:51.600Z,10.42
2023-04-29T03:53:20.822Z,10.41
2023-04-29T03:55:49.632Z,10.41
2023-04-29T03:58:18.653Z,10.38
2023-04-29T04:00:47.367Z,10.37
2023-04-29T04:03:22.957Z,10.36
2023-04-29T04:05:53.242Z,10.35
2023-04-29T04:08:21.815Z,10.33
2023-04-29T04:11:02.906Z,10.33
2023-04-29T04:13:37.952Z,10.32
2023-04-29T04:16:07.153Z,10.31
2023-04-29T04:18:35.708Z,10.31
2023-04-29T04:21:08.476Z,10.28
2023-04-29T04:23:40.484Z,10.26
2023-04-29T04:26:10.246Z,10.25
2023-04-29T04:28:47.836Z,10.25
2023-04-29T04:31:24.412Z,10.22
2023-04-29T04:33:53.136Z,10.21
2023-04-29T04:36:23.168Z,10.20
2023-04-29T04:38:51.829Z,10.19
2023-04-29T04:41:20.707Z,10.15
2023-04-29T04:43:50.470Z,10.12
2023-04-29T04:46:31.346Z,10.09
2023-04-29T04:49:11.464Z,10.07
2023-04-29T04:51:47.401Z,10.06
2023-04-29T04:54:16.161Z,10.05
2023-04-29T04:56:44.626Z,10.05
2023-04-29T04:59:14.450Z,10.04
2023-04-29T05:01:42.982Z,10.04
2023-04-29T05:04:11.704Z,10.04
2023-04-29T05:06:40.362Z,10.04
2023-04-29T05:09:10.896Z,10.03
2023-04-29T05:11:39.933Z,10.02
2023-04-29T05:14:18.119Z,10.04
2023-04-29T05:16:47.148Z,10.03
2023-04-29T05:19:16.228Z,10.03
2023-04-29T05:21:44.757Z,10.03
2023-04-29T05:24:15.323Z,10.04
2023-04-29T05:26:44.408Z,10.04
2023-04-29T05:29:13.518Z,10.04
2023-04-29T05:31:56.737Z,10.06
2023-04-29T05:34:25.744Z,10.07
2023-04-29T05:36:54.589Z,10.06
2023-04-29T05:39:24.593Z,10.06
2023-04-29T05:42:04.563Z,10.06
2023-04-29T05:44:39.678Z,10.05
2023-04-29T05:47:08.318Z,10.06
2023-04-29T05:49:37.056Z,10.05
2023-04-29T05:52:06.607Z,10.06
2023-04-29T05:54:42.361Z,10.06
2023-04-29T05:57:10.805Z,10.05
2023-04-29T05:59:39.296Z,10.06
2023-04-29T06:02:07.928Z,10.05
2023-04-29T06:04:37.959Z,10.05
2023-04-29T06:07:10.031Z,10.05
2023-04-29T06:09:55.819Z,10.06
2023-04-29T06:12:24.406Z,10.06
2023-04-29T06:14:52.893Z,10.05
2023-04-29T06:17:22.427Z,10.06
2023-04-29T06:19:51.716Z,10.09
2023-04-29T06:22:20.408Z,10.09
2023-04-29T06:24:52.764Z,10.09
2023-04-29T06:27:35.956Z,10.12
2023-04-29T06:30:04.960Z,10.13
2023-04-29T06:32:34.082Z,10.16
2023-04-29T06:35:03.076Z,10.18
2023-04-29T06:37:50.159Z,10.19
2023-04-29T06:40:49.052Z,10.23
2023-04-29T06:43:37.715Z,10.25
2023-04-29T06:46:37.408Z,10.28
2023-04-29T06:49:10.928Z,10.29
2023-04-29T06:51:39.518Z,10.29
2023-04-29T06:54:08.147Z,10.30
2023-04-29T06:56:36.781Z,10.33
2023-04-29T06:59:06.685Z,10.35
2023-04-29T07:01:37.452Z,10.39
2023-04-29T07:04:06.347Z,10.40
2023-04-29T07:06:34.897Z,10.40
2023-04-29T07:09:03.689Z,10.41
2023-04-29T07:11:32.214Z,10.42
2023-04-29T07:14:00.756Z,10.41
2023-04-29T07:16:33.396Z,10.42
2023-04-29T07:19:02.056Z,10.43
2023-04-29T07:21:31.344Z,10.44
2023-04-29T07:24:02.355Z,10.46
2023-04-29T07:26:31.251Z,10.45
2023-04-29T07:28:59.742Z,10.48
2023-04-29T07:31:29.614Z,10.48
2023-04-29T07:33:59.576Z,10.51
2023-04-29T07:36:28.722Z,10.54
2023-04-29T07:38:58.075Z,10.55
2023-04-29T07:41:26.702Z,10.56
2023-04-29T07:43:55.700Z,10.60
2023-04-29T07:46:24.208Z,10.60
2023-04-29T07:48:53.027Z,10.62
2023-04-29T07:51:22.988Z,10.64
2023-04-29T07:53:51.537Z,10.65
2023-04-29T07:56:20.185Z,10.64
2023-04-29T07:58:48.911Z,10.67
2023-04-29T08:01:17.963Z,10.67
2023-04-29T08:03:47.110Z,10.67
2023-04-29T08:06:20.861Z,10.68
2023-04-29T08:08:50.939Z,10.69
2023-04-29T08:11:21.619Z,10.70
2023-04-29T08:13:50.066Z,10.69
2023-04-29T08:16:19.076Z,10.67
2023-04-29T08:18:47.760Z,10.67
2023-04-29T08:21:16.350Z,10.67
2023-04-29T08:23:44.891Z,10.67
2023-04-29T08:26:14.741Z,10.66
2023-04-29T08:28:43.248Z,10.67
2023-04-29T08:31:18.427Z,10.67
2023-04-29T08:33:47.014Z,10.66
2023-04-29T08:36:15.838Z,10.66
2023-04-29T08:38:44.447Z,10.65
2023-04-29T08:41:15.458Z,10.64
2023-04-29T08:43:43.962Z,10.65
2023-04-29T08:46:12.907Z,10.65
2023-04-29T08:48:44.310Z,10.64
2023-04-29T08:51:14.017Z,10.64
2023-04-29T08:53:42.560Z,10.64
2023-04-29T08:56:18.491Z,10.63
2023-04-29T08:58:47.761Z,10.63
2023-04-29T09:01:16.931Z,10.60
2023-04-29T09:03:52.875Z,10.62
2023-04-29T09:06:21.806Z,10.61
2023-04-29T09:08:50.413Z,10.61
2023-04-29T09:11:21.505Z,10.61
2023-04-29T09:13:49.949Z,10.62
2023-04-29T09:16:21.462Z,10.63
2023-04-29T09:18:51.893Z,10.63
2023-04-29T09:21:22.860Z,10.62
2023-04-29T09:23:53.505Z,10.63
2023-04-29T09:26:24.428Z,10.63
2023-04-29T09:29:09.320Z,10.65
2023-04-29T09:31:38.878Z,10.67
2023-04-29T09:34:07.896Z,10.66
2023-04-29T09:36:45.044Z,10.68
2023-04-29T09:39:16.276Z,10.69
2023-04-29T09:42:00.520Z,10.71
2023-04-29T09:44:33.684Z,10.73
2023-04-29T09:47:04.168Z,10.73
2023-04-29T09:49:35.870Z,10.75
2023-04-29T09:52:06.145Z,10.76
2023-04-29T09:54:37.435Z,10.77
2023-04-29T09:57:08.529Z,10.77
2023-04-29T09:59:38.380Z,10.79
2023-04-29T10:02:11.655Z,10.82
2023-04-29T10:04:42.343Z,10.82
2023-04-29T10:07:15.528Z,10.83
2023-04-29T10:09:46.228Z,10.86
2023-04-29T10:12:18.395Z,10.87
2023-04-29T10:14:51.967Z,10.89
2023-04-29T10:17:34.081Z,10.92
2023-04-29T10:20:07.401Z,10.94
2023-04-29T10:22:48.774Z,10.96
2023-04-29T10:25:18.541Z,10.99
2023-04-29T10:27:50.516Z,11.02
2023-04-29T10:30:20.110Z,11.03
2023-04-29T10:32:52.113Z,11.06
2023-04-29T10:35:24.507Z,11.06
2023-04-29T10:37:54.256Z,11.10
2023-04-29T10:40:28.927Z,11.12
2023-04-29T10:42:59.626Z,11.16
2023-04-29T10:45:31.791Z,11.17
2023-04-29T10:48:14.738Z,11.21
2023-04-29T10:51:01.628Z,11.23
2023-04-29T10:53:30.913Z,11.26
2023-04-29T10:56:04.906Z,11.30
2023-04-29T10:58:45.197Z,11.34
2023-04-29T11:01:15.293Z,11.38
2023-04-29T11:03:58.658Z,11.42
2023-04-29T11:06:41.520Z,11.50
2023-04-29T11:09:14.524Z,11.56
2023-04-29T11:12:00.656Z,11.62
2023-04-29T11:14:32.282Z,11.71
2023-04-29T11:17:03.370Z,11.78
2023-04-29T11:19:33.673Z,11.86
2023-04-29T11:22:10.483Z,11.97
2023-04-29T11:24:50.173Z,12.05
2023-04-29T11:27:19.561Z,12.15
2023-04-29T11:29:51.026Z,12.23
2023-04-29T11:32:23.087Z,12.27
2023-04-29T11:34:51.937Z,12.32
2023-04-29T11:37:22.673Z,12.40
2023-04-29T11:39:52.160Z,12.50
2023-04-29T11:42:21.830Z,12.60
2023-04-29T11:44:55.002Z,12.71
2023-04-29T11:47:28.424Z,12.81
2023-04-29T11:50:04.155Z,12.91
2023-04-29T11:52:33.221Z,13.00
2023-04-29T11:55:01.914Z,13.08
2023-04-29T11:57:30.532Z,13.15
2023-04-29T12:00:01.225Z,13.22
2023-04-29T12:02:33.482Z,13.29
2023-04-29T12:05:06.823Z,13.38
2023-04-29T12:07:36.446Z,13.46
2023-04-29T12:10:09.104Z,13.54
2023-04-29T12:12:40.586Z,13.63
2023-04-29T12:15:11.720Z,13.72
2023-04-29T12:17:41.189Z,13.78
2023-04-29T12:20:11.466Z,13.85
2023-04-29T12:22:40.105Z,13.90
2023-04-29T12:25:09.687Z,13.93
2023-04-29T12:27:42.693Z,14.00
2023-04-29T12:30:13.254Z,14.08
2023-04-29T12:32:42.427Z,14.18
2023-04-29T12:35:17.498Z,14.32
2023-04-29T12:37:49.805Z,14.43
2023-04-29T12:40:20.300Z,14.48
2023-04-29T12:42:49.165Z,14.47
2023-04-29T12:45:30.946Z,14.46
2023-04-29T12:48:00.756Z,14.45
2023-04-29T12:50:33.930Z,14.46
2023-04-29T12:53:03.744Z,14.49
2023-04-29T12:55:34.579Z,14.50
2023-04-29T12:58:03.607Z,14.50
2023-04-29T13:00:35.045Z,14.45
2023-04-29T13:03:04.354Z,14.43
2023-04-29T13:05:33.174Z,14.41
2023-04-29T13:08:02.175Z,14.40
2023-04-29T13:10:31.119Z,14.44
2023-04-29T13:12:59.721Z,14.48
2023-04-29T13:15:28.720Z,14.54
2023-04-29T13:17:58.785Z,14.59
2023-04-29T13:20:27.560Z,14.61
2023-04-29T13:22:56.229Z,14.63
2023-04-29T13:25:24.786Z,14.64
2023-04-29T13:27:53.318Z,14.65
2023-04-29T13:30:21.781Z,14.62
2023-04-29T13:32:54.880Z,14.58
2023-04-29T13:35:26.738Z,14.56
2023-04-29T13:37:55.234Z,14.55
2023-04-29T13:40:27.850Z,14.53
2023-04-29T13:43:04.287Z,14.51
2023-04-29T13:45:38.947Z,14.49
2023-04-29T13:48:21.083Z,14.46
2023-04-29T13:56:53.394Z,14.38
2023-04-29T13:59:36.346Z,14.35
2023-04-29T14:02:21.775Z,14.32
2023-04-29T14:04:28.882Z,14.30
2023-04-29T14:06:58.884Z,14.27
2023-04-29T14:09:27.509Z,14.22
2023-04-29T14:11:56.130Z,14.20
2023-04-29T14:14:24.673Z,14.21
2023-04-29T14:16:53.277Z,14.21
2023-04-29T14:19:21.807Z,14.24
2023-04-29T14:21:50.545Z,14.22
2023-04-29T14:24:20.377Z,14.21
2023-04-29T14:26:48.858Z,14.19
2023-04-29T14:29:17.367Z,14.20
2023-04-29T14:31:46.182Z,14.24
2023-04-29T14:34:14.800Z,14.30
2023-04-29T14:36:45.429Z,14.33
2023-04-29T14:39:15.158Z,14.37
2023-04-29T14:41:45.168Z,14.41
2023-04-29T14:44:13.695Z,14.43
2023-04-29T14:46:42.424Z,14.44
2023-04-29T14:49:10.904Z,14.44
2023-04-29T14:51:39.333Z,14.45
2023-04-29T14:54:07.839Z,14.46
2023-04-29T14:56:37.849Z,14.48
2023-04-29T14:59:08.785Z,14.49
2023-04-29T15:01:37.409Z,14.51
2023-04-29T15:04:06.316Z,14.56
2023-04-29T15:06:35.279Z,14.60
2023-04-29T15:09:05.113Z,14.65
2023-04-29T15:11:33.567Z,14.70
2023-04-29T15:14:02.098Z,14.70
2023-04-29T15:16:32.568Z,14.72
2023-04-29T15:19:01.160Z,14.76
2023-04-29T15:21:30.140Z,14.73
2023-04-29T15:23:58.723Z,14.71
2023-04-29T15:26:28.567Z,14.69
2023-04-29T15:28:57.099Z,14.69
2023-04-29T15:31:27.863Z,14.65
2023-04-29T15:33:59.153Z,14.67
2023-04-29T15:36:30.681Z,14.68
2023-04-29T15:38:59.270Z,14.71
2023-04-29T15:41:27.862Z,14.77
2023-04-29T15:43:58.290Z,14.83
2023-04-29T15:46:27.947Z,14.91
2023-04-29T15:48:56.620Z,14.97
2023-04-29T15:51:26.531Z,15.03
2023-04-29T15:53:55.020Z,15.13
2023-04-29T15:56:23.780Z,15.13
2023-04-29T15:58:52.600Z,15.16
2023-04-29T16:01:21.350Z,15.17
2023-04-29T16:03:50.002Z,15.19
2023-04-29T16:06:18.583Z,15.19
2023-04-29T16:08:49.242Z,15.17
2023-04-29T16:11:17.852Z,15.15
2023-04-29T16:13:46.345Z,15.11
2023-04-29T16:16:14.889Z,15.09
2023-04-29T16:18:43.462Z,15.09
2023-04-29T16:21:13.605Z,15.13
2023-04-29T16:23:42.078Z,15.15
2023-04-29T16:26:11.979Z,15.17
2023-04-29T16:28:40.733Z,15.18
2023-04-29T16:31:09.304Z,15.19
2023-04-29T16:33:37.895Z,15.20
2023-04-29T16:36:07.079Z,15.21
2023-04-29T16:38:35.575Z,15.22
2023-04-29T16:41:04.200Z,15.22
2023-04-29T16:43:35.035Z,15.22
2023-04-29T16:46:03.897Z,15.21
2023-04-29T16:48:32.501Z,15.22
2023-04-29T16:51:01.326Z,15.22
2023-04-29T16:53:30.069Z,15.20
2023-04-29T16:55:58.572Z,15.20
2023-04-29T16:58:27.094Z,15.20
2023-04-29T17:00:57.266Z,15.20
2023-04-29T17:03:25.792Z,15.20
2023-04-29T17:05:54.386Z,15.19
2023-04-29T17:08:22.968Z,15.18
2023-04-29T17:10:51.557Z,15.18
2023-04-29T17:13:20.215Z,15.16
2023-04-29T17:15:48.709Z,15.15
2023-04-29T17:18:20.077Z,15.13
2023-04-29T17:20:50.725Z,15.10
2023-04-29T17:23:19.624Z,15.08
2023-04-29T17:25:48.315Z,15.06
2023-04-29T17:28:16.916Z,15.03
2023-04-29T17:30:45.664Z,15.02
2023-04-29T17:33:14.229Z,14.99
2023-04-29T17:35:45.403Z,14.95
2023-04-29T17:38:14.640Z,14.92
2023-04-29T17:40:43.184Z,14.86
2023-04-29T17:43:11.912Z,14.81
2023-04-29T17:45:43.570Z,14.77
2023-04-29T17:48:12.145Z,14.72
2023-04-29T17:50:40.645Z,14.69
2023-04-29T17:53:10.759Z,14.66
2023-04-29T17:55:39.872Z,14.64
2023-04-29T17:58:08.680Z,14.61
2023-04-29T18:00:37.929Z,14.59
2023-04-29T18:03:06.637Z,14.56
2023-04-29T18:05:35.196Z,14.54
2023-04-29T18:08:04.096Z,14.49
2023-04-29T18:10:36.190Z,14.46
2023-04-29T18:13:04.665Z,14.41
2023-04-29T18:15:33.426Z,14.38
2023-04-29T18:18:01.958Z,14.35
2023-04-29T18:20:30.901Z,14.33
2023-04-29T18:22:59.616Z,14.29
2023-04-29T18:25:28.482Z,14.26
2023-04-29T18:28:13.167Z,14.22
2023-04-29T18:30:47.613Z,14.20
2023-04-29T18:33:16.445Z,14.17
2023-04-29T18:35:45.112Z,14.15
2023-04-29T18:38:17.413Z,14.12
2023-04-29T18:40:46.337Z,14.10
2023-04-29T18:43:18.217Z,14.09
2023-04-29T18:45:46.855Z,14.05
2023-04-29T18:48:15.408Z,14.01
2023-04-29T18:50:44.453Z,13.97
2023-04-29T18:53:13.477Z,13.95
2023-04-29T18:55:42.257Z,13.93
2023-04-29T18:58:11.231Z,13.91
2023-04-29T19:00:41.563Z,13.89
2023-04-29T19:03:11.079Z,13.87
2023-04-29T19:05:40.079Z,13.84
2023-04-29T19:08:09.161Z,13.81
2023-04-29T19:10:37.859Z,13.76
2023-04-29T19:13:07.003Z,13.73
2023-04-29T19:15:35.956Z,13.69
2023-04-29T19:18:06.062Z,13.66
2023-04-29T19:20:35.613Z,13.64
2023-04-29T19:23:04.683Z,13.61
2023-04-29T19:25:33.255Z,13.57
2023-04-29T19:28:02.052Z,13.53
2023-04-29T19:30:32.700Z,13.49
2023-04-29T19:33:01.557Z,13.45
2023-04-29T19:35:31.597Z,13.39
2023-04-29T19:38:00.322Z,13.34
2023-04-29T19:40:29.092Z,13.29
2023-04-29T19:42:57.934Z,13.22
2023-04-29T19:45:26.792Z,13.13
2023-04-29T19:47:55.896Z,13.03
2023-04-29T19:50:24.928Z,12.94
2023-04-29T19:52:55.012Z,12.88
2023-04-29T19:55:24.035Z,12.79
2023-04-29T19:57:53.400Z,12.69
2023-04-29T20:00:22.585Z,12.62
2023-04-29T20:02:52.376Z,12.54
2023-04-29T20:05:36.606Z,12.47
2023-04-29T20:08:13.750Z,12.38
2023-04-29T20:10:42.539Z,12.29
2023-04-29T20:13:11.278Z,12.22
2023-04-29T20:15:39.938Z,12.15
2023-04-29T20:18:08.745Z,12.07
2023-04-29T20:20:37.403Z,11.97
2023-04-29T20:23:06.135Z,11.89
2023-04-29T20:25:36.226Z,11.82
2023-04-29T20:28:05.483Z,11.74
2023-04-29T20:30:34.392Z,11.67
2023-04-29T20:33:03.321Z,11.59
2023-04-29T20:35:31.981Z,11.54
2023-04-29T20:38:00.925Z,11.50
2023-04-29T20:40:29.579Z,11.43
2023-04-29T20:42:59.778Z,11.38
2023-04-29T20:45:28.639Z,11.31
2023-04-29T20:47:57.341Z,11.25
2023-04-29T20:50:28.277Z,11.21
2023-04-29T20:52:56.855Z,11.16
2023-04-29T20:55:25.632Z,11.11
2023-04-29T20:57:54.328Z,11.05
2023-04-29T21:00:24.418Z,10.98
2023-04-29T21:02:52.979Z,10.91
2023-04-29T21:05:21.550Z,10.85
2023-04-29T21:07:50.269Z,10.78
2023-04-29T21:10:18.905Z,10.72
2023-04-29T21:12:47.458Z,10.68
2023-04-29T21:15:16.373Z,10.63
2023-04-29T21:17:46.579Z,10.58
2023-04-29T21:20:17.102Z,10.55
2023-04-29T21:22:45.827Z,10.51
2023-04-29T21:25:14.340Z,10.45
2023-04-29T21:27:42.871Z,10.41
2023-04-29T21:30:12.254Z,10.36
2023-04-29T21:32:40.877Z,10.33
2023-04-29T21:35:11.338Z,10.29
2023-04-29T21:37:39.900Z,10.24
2023-04-29T21:40:09.862Z,10.21
2023-04-29T21:42:38.760Z,10.18
2023-04-29T21:45:08.509Z,10.13
2023-04-29T21:47:37.524Z,10.08
2023-04-29T21:50:07.592Z,10.05
2023-04-29T21:52:37.798Z,10.02
2023-04-29T21:55:07.399Z,9.98
2023-04-29T21:57:44.403Z,9.96
2023-04-29T22:00:28.713Z,9.92
2023-04-29T22:02:57.322Z,9.89
2023-04-29T22:05:26.021Z,9.87
2023-04-29T22:07:58.064Z,9.84
2023-04-29T22:10:27.222Z,9.82
2023-04-29T22:12:55.839Z,9.80
2023-04-29T22:15:28.591Z,9.79
2023-04-29T22:17:58.262Z,9.76
2023-04-29T22:20:27.002Z,9.74
2023-04-29T22:22:57.127Z,9.72
2023-04-29T22:25:25.622Z,9.71
2023-04-29T22:27:54.127Z,9.69
2023-04-29T22:30:22.708Z,9.67
2023-04-29T22:32:51.316Z,9.64
2023-04-29T22:35:19.893Z,9.63
2023-04-29T22:37:48.934Z,9.62
2023-04-29T22:40:18.941Z,9.59
2023-04-29T22:42:47.469Z,9.57
2023-04-29T22:45:16.073Z,9.56
2023-04-29T22:47:45.086Z,9.54
2023-04-29T22:50:13.768Z,9.52
2023-04-29T22:52:42.237Z,9.50
2023-04-29T22:55:10.994Z,9.47
2023-04-29T22:57:41.045Z,9.47
2023-04-29T23:00:11.193Z,9.45
2023-04-29T23:02:40.367Z,9.46
2023-04-29T23:05:09.656Z,9.44
2023-04-29T23:07:38.177Z,9.44
2023-04-29T23:10:07.366Z,9.42
2023-04-29T23:12:36.214Z,9.42
2023-04-29T23:15:06.907Z,9.41
2023-04-29T23:17:37.520Z,9.42
2023-04-29T23:20:07.609Z,9.42
2023-04-29T23:22:36.124Z,9.42
2023-04-29T23:25:04.928Z,9.42
2023-04-29T23:27:33.418Z,9.42
2023-04-29T23:30:02.719Z,9.41
2023-04-29T23:32:33.970Z,9.42
2023-04-29T23:35:02.575Z,9.40
2023-04-29T23:37:31.378Z,9.42
2023-04-29T23:39:59.963Z,9.41
2023-04-29T23:42:28.433Z,9.40
2023-04-29T23:44:57.036Z,9.40
2023-04-29T23:47:25.706Z,9.39
2023-04-29T23:49:55.899Z,9.38
2023-04-29T23:52:24.840Z,9.38
2023-04-29T23:54:53.378Z,9.37
2023-04-29T23:57:21.836Z,9.36
2023-04-29T23:59:50.401Z,9.35
